sensor_id;sensor_type;location;lat;lon;timestamp;P1;durP1;ratioP1;P2;durP2;ratioP2
72205;SDS011;60111;48.286;7.812;2023-08-06T00:01:15;6.35;;;2.27;;
72205;SDS011;60111;48.286;7.812;2023-08-06T00:03:50;5.83;;;2.35;;
72205;SDS011;60111;48.286;7.812;2023-08-06T00:06:22;4.85;;;2.20;;
72205;SDS011;60111;48.286;7.812;2023-08-06T00:08:55;5.37;;;1.98;;
72205;SDS011;60111;48.286;7.812;2023-08-06T00:11:28;4.15;;;2.25;;
72205;SDS011;60111;48.286;7.812;2023-08-06T00:14:01;6.53;;;2.25;;
72205;SDS011;60111;48.286;7.812;2023-08-06T00:16:33;3.12;;;2.33;;
72205;SDS011;60111;48.286;7.812;2023-08-06T00:19:06;6.78;;;2.22;;
72205;SDS011;60111;48.286;7.812;2023-08-06T00:21:38;2.35;;;1.98;;
72205;SDS011;60111;48.286;7.812;2023-08-06T00:24:11;3.62;;;2.17;;
72205;SDS011;60111;48.286;7.812;2023-08-06T00:26:43;5.30;;;2.05;;
72205;SDS011;60111;48.286;7.812;2023-08-06T00:29:16;5.90;;;2.33;;
72205;SDS011;60111;48.286;7.812;2023-08-06T00:31:48;7.62;;;2.08;;
72205;SDS011;60111;48.286;7.812;2023-08-06T00:34:21;4.03;;;2.13;;
72205;SDS011;60111;48.286;7.812;2023-08-06T00:36:54;7.35;;;2.08;;
72205;SDS011;60111;48.286;7.812;2023-08-06T00:39:26;3.58;;;2.10;;
72205;SDS011;60111;48.286;7.812;2023-08-06T00:41:59;3.17;;;2.15;;
72205;SDS011;60111;48.286;7.812;2023-08-06T00:44:31;5.67;;;2.02;;
72205;SDS011;60111;48.286;7.812;2023-08-06T00:47:04;2.65;;;1.87;;
72205;SDS011;60111;48.286;7.812;2023-08-06T00:49:39;5.15;;;2.33;;
72205;SDS011;60111;48.286;7.812;2023-08-06T00:52:12;4.00;;;1.70;;
72205;SDS011;60111;48.286;7.812;2023-08-06T00:54:45;3.30;;;1.90;;
72205;SDS011;60111;48.286;7.812;2023-08-06T00:57:18;2.25;;;1.87;;
72205;SDS011;60111;48.286;7.812;2023-08-06T00:59:51;5.42;;;2.10;;
72205;SDS011;60111;48.286;7.812;2023-08-06T01:02:25;4.33;;;2.00;;
72205;SDS011;60111;48.286;7.812;2023-08-06T01:04:57;4.83;;;2.10;;
72205;SDS011;60111;48.286;7.812;2023-08-06T01:11:22;2.33;;;1.70;;
72205;SDS011;60111;48.286;7.812;2023-08-06T01:13:18;3.17;;;2.08;;
72205;SDS011;60111;48.286;7.812;2023-08-06T01:15:54;4.10;;;2.30;;
72205;SDS011;60111;48.286;7.812;2023-08-06T01:18:28;3.17;;;2.17;;
72205;SDS011;60111;48.286;7.812;2023-08-06T01:21:00;5.70;;;2.10;;
72205;SDS011;60111;48.286;7.812;2023-08-06T01:23:33;3.85;;;2.20;;
72205;SDS011;60111;48.286;7.812;2023-08-06T01:26:19;5.25;;;2.30;;
72205;SDS011;60111;48.286;7.812;2023-08-06T01:29:14;4.27;;;2.20;;
72205;SDS011;60111;48.286;7.812;2023-08-06T01:31:41;4.10;;;2.22;;
72205;SDS011;60111;48.286;7.812;2023-08-06T01:34:21;4.08;;;2.45;;
72205;SDS011;60111;48.286;7.812;2023-08-06T01:36:59;5.47;;;2.33;;
72205;SDS011;60111;48.286;7.812;2023-08-06T01:39:33;4.70;;;2.00;;
72205;SDS011;60111;48.286;7.812;2023-08-06T01:42:06;3.17;;;2.08;;
72205;SDS011;60111;48.286;7.812;2023-08-06T01:44:39;5.03;;;2.30;;
72205;SDS011;60111;48.286;7.812;2023-08-06T01:47:11;6.43;;;2.83;;
72205;SDS011;60111;48.286;7.812;2023-08-06T01:49:44;5.15;;;2.42;;
72205;SDS011;60111;48.286;7.812;2023-08-06T01:52:16;5.77;;;2.40;;
72205;SDS011;60111;48.286;7.812;2023-08-06T01:54:49;4.90;;;2.42;;
72205;SDS011;60111;48.286;7.812;2023-08-06T01:57:22;7.15;;;2.40;;
72205;SDS011;60111;48.286;7.812;2023-08-06T01:59:54;8.30;;;3.10;;
72205;SDS011;60111;48.286;7.812;2023-08-06T02:02:27;5.47;;;2.37;;
72205;SDS011;60111;48.286;7.812;2023-08-06T02:05:00;6.92;;;2.70;;
72205;SDS011;60111;48.286;7.812;2023-08-06T02:07:32;8.50;;;2.87;;
72205;SDS011;60111;48.286;7.812;2023-08-06T02:10:05;5.92;;;2.42;;
72205;SDS011;60111;48.286;7.812;2023-08-06T02:12:38;6.35;;;2.75;;
72205;SDS011;60111;48.286;7.812;2023-08-06T02:15:11;5.40;;;2.87;;
72205;SDS011;60111;48.286;7.812;2023-08-06T02:17:43;7.60;;;3.05;;
72205;SDS011;60111;48.286;7.812;2023-08-06T02:20:17;6.22;;;3.20;;
72205;SDS011;60111;48.286;7.812;2023-08-06T02:22:49;5.55;;;2.77;;
72205;SDS011;60111;48.286;7.812;2023-08-06T02:25:22;6.10;;;3.12;;
72205;SDS011;60111;48.286;7.812;2023-08-06T02:27:55;6.58;;;3.33;;
72205;SDS011;60111;48.286;7.812;2023-08-06T02:30:28;5.72;;;2.47;;
72205;SDS011;60111;48.286;7.812;2023-08-06T02:33:01;3.30;;;2.47;;
72205;SDS011;60111;48.286;7.812;2023-08-06T02:35:33;4.10;;;2.58;;
72205;SDS011;60111;48.286;7.812;2023-08-06T02:38:06;5.97;;;2.58;;
72205;SDS011;60111;48.286;7.812;2023-08-06T02:40:49;7.60;;;2.63;;
72205;SDS011;60111;48.286;7.812;2023-08-06T02:43:18;6.22;;;2.83;;
72205;SDS011;60111;48.286;7.812;2023-08-06T02:45:51;6.42;;;2.95;;
72205;SDS011;60111;48.286;7.812;2023-08-06T02:48:23;7.00;;;2.97;;
72205;SDS011;60111;48.286;7.812;2023-08-06T02:50:59;4.78;;;2.87;;
72205;SDS011;60111;48.286;7.812;2023-08-06T02:53:32;3.67;;;2.75;;
72205;SDS011;60111;48.286;7.812;2023-08-06T02:56:04;4.80;;;2.60;;
72205;SDS011;60111;48.286;7.812;2023-08-06T02:58:37;5.50;;;2.60;;
72205;SDS011;60111;48.286;7.812;2023-08-06T03:01:09;4.37;;;2.72;;
72205;SDS011;60111;48.286;7.812;2023-08-06T03:03:42;4.40;;;2.37;;
72205;SDS011;60111;48.286;7.812;2023-08-06T03:06:14;6.10;;;2.40;;
72205;SDS011;60111;48.286;7.812;2023-08-06T03:08:47;5.72;;;2.52;;
72205;SDS011;60111;48.286;7.812;2023-08-06T03:11:19;7.08;;;2.30;;
72205;SDS011;60111;48.286;7.812;2023-08-06T03:13:52;7.83;;;2.35;;
72205;SDS011;60111;48.286;7.812;2023-08-06T03:16:25;3.60;;;1.97;;
72205;SDS011;60111;48.286;7.812;2023-08-06T03:18:57;6.03;;;1.70;;
72205;SDS011;60111;48.286;7.812;2023-08-06T03:21:30;4.35;;;1.47;;
72205;SDS011;60111;48.286;7.812;2023-08-06T03:24:02;4.78;;;1.87;;
72205;SDS011;60111;48.286;7.812;2023-08-06T03:26:35;3.67;;;1.40;;
72205;SDS011;60111;48.286;7.812;2023-08-06T03:29:07;4.15;;;1.62;;
72205;SDS011;60111;48.286;7.812;2023-08-06T03:31:40;2.95;;;1.65;;
72205;SDS011;60111;48.286;7.812;2023-08-06T03:34:12;5.65;;;1.90;;
72205;SDS011;60111;48.286;7.812;2023-08-06T03:36:45;5.37;;;1.77;;
72205;SDS011;60111;48.286;7.812;2023-08-06T03:39:18;5.33;;;2.00;;
72205;SDS011;60111;48.286;7.812;2023-08-06T03:41:51;2.80;;;1.70;;
72205;SDS011;60111;48.286;7.812;2023-08-06T03:44:23;4.40;;;1.70;;
72205;SDS011;60111;48.286;7.812;2023-08-06T03:46:57;3.55;;;1.62;;
72205;SDS011;60111;48.286;7.812;2023-08-06T03:49:30;2.05;;;1.45;;
72205;SDS011;60111;48.286;7.812;2023-08-06T03:52:03;2.80;;;1.47;;
72205;SDS011;60111;48.286;7.812;2023-08-06T03:54:36;3.50;;;1.50;;
72205;SDS011;60111;48.286;7.812;2023-08-06T03:57:10;3.53;;;1.57;;
72205;SDS011;60111;48.286;7.812;2023-08-06T03:59:42;3.83;;;1.47;;
72205;SDS011;60111;48.286;7.812;2023-08-06T04:02:15;2.50;;;1.60;;
72205;SDS011;60111;48.286;7.812;2023-08-06T04:04:48;3.87;;;1.40;;
72205;SDS011;60111;48.286;7.812;2023-08-06T04:07:21;6.90;;;2.00;;
72205;SDS011;60111;48.286;7.812;2023-08-06T04:09:58;5.47;;;1.37;;
72205;SDS011;60111;48.286;7.812;2023-08-06T04:12:32;2.02;;;1.35;;
72205;SDS011;60111;48.286;7.812;2023-08-06T04:15:06;3.60;;;1.40;;
72205;SDS011;60111;48.286;7.812;2023-08-06T04:17:39;4.90;;;1.35;;
72205;SDS011;60111;48.286;7.812;2023-08-06T04:20:12;3.60;;;1.30;;
72205;SDS011;60111;48.286;7.812;2023-08-06T04:22:44;2.77;;;1.07;;
72205;SDS011;60111;48.286;7.812;2023-08-06T04:25:17;3.67;;;1.30;;
72205;SDS011;60111;48.286;7.812;2023-08-06T04:27:51;3.22;;;1.50;;
72205;SDS011;60111;48.286;7.812;2023-08-06T04:30:24;2.03;;;1.30;;
72205;SDS011;60111;48.286;7.812;2023-08-06T04:32:56;1.52;;;1.32;;
72205;SDS011;60111;48.286;7.812;2023-08-06T04:35:29;2.83;;;1.30;;
72205;SDS011;60111;48.286;7.812;2023-08-06T04:38:02;3.30;;;1.22;;
72205;SDS011;60111;48.286;7.812;2023-08-06T04:40:35;4.90;;;1.15;;
72205;SDS011;60111;48.286;7.812;2023-08-06T04:43:08;1.83;;;0.90;;
72205;SDS011;60111;48.286;7.812;2023-08-06T04:45:51;3.52;;;0.90;;
72205;SDS011;60111;48.286;7.812;2023-08-06T04:48:19;2.52;;;0.90;;
72205;SDS011;60111;48.286;7.812;2023-08-06T04:50:52;1.62;;;1.00;;
72205;SDS011;60111;48.286;7.812;2023-08-06T04:53:25;2.53;;;0.83;;
72205;SDS011;60111;48.286;7.812;2023-08-06T04:55:58;3.35;;;1.00;;
72205;SDS011;60111;48.286;7.812;2023-08-06T04:58:30;3.92;;;1.05;;
72205;SDS011;60111;48.286;7.812;2023-08-06T05:01:03;2.33;;;0.90;;
72205;SDS011;60111;48.286;7.812;2023-08-06T05:03:35;4.50;;;1.12;;
72205;SDS011;60111;48.286;7.812;2023-08-06T05:06:08;3.40;;;1.20;;
72205;SDS011;60111;48.286;7.812;2023-08-06T05:08:41;6.57;;;1.27;;
72205;SDS011;60111;48.286;7.812;2023-08-06T05:11:13;6.47;;;1.15;;
72205;SDS011;60111;48.286;7.812;2023-08-06T05:13:46;6.30;;;1.40;;
72205;SDS011;60111;48.286;7.812;2023-08-06T05:16:19;4.20;;;1.25;;
72205;SDS011;60111;48.286;7.812;2023-08-06T05:18:51;6.58;;;1.20;;
72205;SDS011;60111;48.286;7.812;2023-08-06T05:21:25;3.80;;;1.10;;
72205;SDS011;60111;48.286;7.812;2023-08-06T05:23:57;5.85;;;1.75;;
72205;SDS011;60111;48.286;7.812;2023-08-06T05:26:30;5.50;;;1.27;;
72205;SDS011;60111;48.286;7.812;2023-08-06T05:29:02;3.85;;;1.45;;
72205;SDS011;60111;48.286;7.812;2023-08-06T05:31:35;2.50;;;1.15;;
72205;SDS011;60111;48.286;7.812;2023-08-06T05:34:08;6.47;;;1.50;;
72205;SDS011;60111;48.286;7.812;2023-08-06T05:36:40;7.55;;;1.65;;
72205;SDS011;60111;48.286;7.812;2023-08-06T05:39:13;5.58;;;1.42;;
72205;SDS011;60111;48.286;7.812;2023-08-06T05:41:45;4.72;;;1.57;;
72205;SDS011;60111;48.286;7.812;2023-08-06T05:44:19;4.17;;;1.60;;
72205;SDS011;60111;48.286;7.812;2023-08-06T05:46:51;6.23;;;1.60;;
72205;SDS011;60111;48.286;7.812;2023-08-06T05:49:24;4.43;;;1.40;;
72205;SDS011;60111;48.286;7.812;2023-08-06T05:51:56;6.22;;;1.57;;
72205;SDS011;60111;48.286;7.812;2023-08-06T05:54:30;4.73;;;1.60;;
72205;SDS011;60111;48.286;7.812;2023-08-06T05:57:03;5.92;;;1.67;;
72205;SDS011;60111;48.286;7.812;2023-08-06T05:59:36;3.85;;;1.25;;
72205;SDS011;60111;48.286;7.812;2023-08-06T06:02:08;4.25;;;1.42;;
72205;SDS011;60111;48.286;7.812;2023-08-06T06:04:41;7.17;;;1.70;;
72205;SDS011;60111;48.286;7.812;2023-08-06T06:07:13;7.08;;;1.60;;
72205;SDS011;60111;48.286;7.812;2023-08-06T06:09:46;6.50;;;1.40;;
72205;SDS011;60111;48.286;7.812;2023-08-06T06:12:19;4.45;;;1.30;;
72205;SDS011;60111;48.286;7.812;2023-08-06T06:14:53;5.00;;;1.27;;
72205;SDS011;60111;48.286;7.812;2023-08-06T06:17:25;6.20;;;1.52;;
72205;SDS011;60111;48.286;7.812;2023-08-06T06:19:59;9.78;;;1.50;;
72205;SDS011;60111;48.286;7.812;2023-08-06T06:22:31;3.15;;;1.30;;
72205;SDS011;60111;48.286;7.812;2023-08-06T06:25:04;6.63;;;1.30;;
72205;SDS011;60111;48.286;7.812;2023-08-06T06:27:37;6.53;;;1.50;;
72205;SDS011;60111;48.286;7.812;2023-08-06T06:30:10;7.23;;;1.60;;
72205;SDS011;60111;48.286;7.812;2023-08-06T06:32:43;5.83;;;1.63;;
72205;SDS011;60111;48.286;7.812;2023-08-06T06:35:15;6.72;;;1.30;;
72205;SDS011;60111;48.286;7.812;2023-08-06T06:37:49;7.45;;;1.82;;
72205;SDS011;60111;48.286;7.812;2023-08-06T06:40:22;9.47;;;1.67;;
72205;SDS011;60111;48.286;7.812;2023-08-06T06:42:54;10.82;;;1.62;;
72205;SDS011;60111;48.286;7.812;2023-08-06T06:45:27;6.53;;;1.20;;
72205;SDS011;60111;48.286;7.812;2023-08-06T06:48:00;3.65;;;1.47;;
72205;SDS011;60111;48.286;7.812;2023-08-06T06:50:32;5.53;;;1.22;;
72205;SDS011;60111;48.286;7.812;2023-08-06T06:53:06;8.03;;;1.82;;
72205;SDS011;60111;48.286;7.812;2023-08-06T06:55:39;3.80;;;1.20;;
72205;SDS011;60111;48.286;7.812;2023-08-06T06:58:11;5.80;;;1.20;;
72205;SDS011;60111;48.286;7.812;2023-08-06T07:00:44;3.60;;;1.35;;
72205;SDS011;60111;48.286;7.812;2023-08-06T07:03:22;5.62;;;1.45;;
72205;SDS011;60111;48.286;7.812;2023-08-06T07:05:58;7.78;;;1.57;;
72205;SDS011;60111;48.286;7.812;2023-08-06T07:08:31;6.42;;;1.50;;
72205;SDS011;60111;48.286;7.812;2023-08-06T07:11:04;6.17;;;1.80;;
72205;SDS011;60111;48.286;7.812;2023-08-06T07:13:37;3.27;;;1.15;;
72205;SDS011;60111;48.286;7.812;2023-08-06T07:16:10;4.87;;;1.27;;
72205;SDS011;60111;48.286;7.812;2023-08-06T07:18:43;2.70;;;1.40;;
72205;SDS011;60111;48.286;7.812;2023-08-06T07:21:15;4.00;;;1.10;;
72205;SDS011;60111;48.286;7.812;2023-08-06T07:23:48;4.92;;;1.32;;
72205;SDS011;60111;48.286;7.812;2023-08-06T07:26:20;7.95;;;1.10;;
72205;SDS011;60111;48.286;7.812;2023-08-06T07:28:53;3.60;;;1.02;;
72205;SDS011;60111;48.286;7.812;2023-08-06T07:31:25;6.08;;;1.32;;
72205;SDS011;60111;48.286;7.812;2023-08-06T07:33:58;6.57;;;1.10;;
72205;SDS011;60111;48.286;7.812;2023-08-06T07:36:31;7.45;;;1.12;;
72205;SDS011;60111;48.286;7.812;2023-08-06T07:39:03;1.87;;;0.68;;
72205;SDS011;60111;48.286;7.812;2023-08-06T07:41:37;2.87;;;1.22;;
72205;SDS011;60111;48.286;7.812;2023-08-06T07:44:09;2.02;;;0.80;;
72205;SDS011;60111;48.286;7.812;2023-08-06T07:46:42;4.42;;;0.82;;
72205;SDS011;60111;48.286;7.812;2023-08-06T07:49:15;2.17;;;0.93;;
72205;SDS011;60111;48.286;7.812;2023-08-06T07:51:47;4.72;;;1.00;;
72205;SDS011;60111;48.286;7.812;2023-08-06T07:54:22;3.52;;;0.90;;
72205;SDS011;60111;48.286;7.812;2023-08-06T07:56:55;1.95;;;0.78;;
72205;SDS011;60111;48.286;7.812;2023-08-06T07:59:27;3.17;;;0.80;;
72205;SDS011;60111;48.286;7.812;2023-08-06T08:02:00;5.33;;;1.47;;
72205;SDS011;60111;48.286;7.812;2023-08-06T08:04:33;1.72;;;0.80;;
72205;SDS011;60111;48.286;7.812;2023-08-06T08:07:05;3.30;;;0.60;;
72205;SDS011;60111;48.286;7.812;2023-08-06T08:09:38;3.17;;;0.70;;
72205;SDS011;60111;48.286;7.812;2023-08-06T08:12:10;1.90;;;0.68;;
72205;SDS011;60111;48.286;7.812;2023-08-06T08:14:43;2.60;;;1.00;;
72205;SDS011;60111;48.286;7.812;2023-08-06T08:17:16;1.70;;;0.70;;
72205;SDS011;60111;48.286;7.812;2023-08-06T08:19:49;1.00;;;0.50;;
72205;SDS011;60111;48.286;7.812;2023-08-06T08:22:22;1.32;;;0.70;;
72205;SDS011;60111;48.286;7.812;2023-08-06T08:24:54;5.20;;;0.70;;
72205;SDS011;60111;48.286;7.812;2023-08-06T08:27:27;0.57;;;0.42;;
72205;SDS011;60111;48.286;7.812;2023-08-06T08:30:00;1.67;;;0.50;;
72205;SDS011;60111;48.286;7.812;2023-08-06T08:32:33;2.58;;;0.60;;
72205;SDS011;60111;48.286;7.812;2023-08-06T08:35:06;1.15;;;0.50;;
72205;SDS011;60111;48.286;7.812;2023-08-06T08:37:39;2.30;;;0.50;;
72205;SDS011;60111;48.286;7.812;2023-08-06T08:40:11;0.42;;;0.37;;
72205;SDS011;60111;48.286;7.812;2023-08-06T08:42:45;2.77;;;0.50;;
72205;SDS011;60111;48.286;7.812;2023-08-06T08:45:19;1.72;;;0.65;;
72205;SDS011;60111;48.286;7.812;2023-08-06T08:47:54;1.75;;;0.53;;
72205;SDS011;60111;48.286;7.812;2023-08-06T08:50:26;1.95;;;0.55;;
72205;SDS011;60111;48.286;7.812;2023-08-06T08:53:00;2.08;;;0.30;;
72205;SDS011;60111;48.286;7.812;2023-08-06T08:55:32;0.73;;;0.40;;
72205;SDS011;60111;48.286;7.812;2023-08-06T08:58:05;0.93;;;0.40;;
72205;SDS011;60111;48.286;7.812;2023-08-06T09:00:38;0.50;;;0.50;;
72205;SDS011;60111;48.286;7.812;2023-08-06T09:03:12;1.13;;;0.40;;
72205;SDS011;60111;48.286;7.812;2023-08-06T09:05:46;0.80;;;0.30;;
72205;SDS011;60111;48.286;7.812;2023-08-06T09:08:24;0.33;;;0.33;;
72205;SDS011;60111;48.286;7.812;2023-08-06T09:10:57;0.47;;;0.30;;
72205;SDS011;60111;48.286;7.812;2023-08-06T09:13:31;0.33;;;0.33;;
72205;SDS011;60111;48.286;7.812;2023-08-06T09:16:04;0.23;;;0.23;;
72205;SDS011;60111;48.286;7.812;2023-08-06T09:18:37;1.13;;;0.47;;
72205;SDS011;60111;48.286;7.812;2023-08-06T09:21:14;0.30;;;0.20;;
72205;SDS011;60111;48.286;7.812;2023-08-06T09:23:47;0.55;;;0.20;;
72205;SDS011;60111;48.286;7.812;2023-08-06T09:26:19;1.25;;;0.40;;
72205;SDS011;60111;48.286;7.812;2023-08-06T09:28:52;0.40;;;0.40;;
72205;SDS011;60111;48.286;7.812;2023-08-06T09:31:25;0.85;;;0.33;;
72205;SDS011;60111;48.286;7.812;2023-08-06T09:34:18;1.22;;;0.57;;
72205;SDS011;60111;48.286;7.812;2023-08-06T09:36:55;1.07;;;0.60;;
72205;SDS011;60111;48.286;7.812;2023-08-06T09:39:29;2.30;;;0.50;;
72205;SDS011;60111;48.286;7.812;2023-08-06T09:42:02;1.57;;;0.50;;
72205;SDS011;60111;48.286;7.812;2023-08-06T09:44:35;3.12;;;0.72;;
72205;SDS011;60111;48.286;7.812;2023-08-06T09:47:10;2.20;;;0.90;;
72205;SDS011;60111;48.286;7.812;2023-08-06T09:49:43;2.43;;;0.80;;
72205;SDS011;60111;48.286;7.812;2023-08-06T09:52:16;0.90;;;0.57;;
72205;SDS011;60111;48.286;7.812;2023-08-06T09:54:49;0.55;;;0.47;;
72205;SDS011;60111;48.286;7.812;2023-08-06T09:57:23;0.75;;;0.23;;
72205;SDS011;60111;48.286;7.812;2023-08-06T09:59:57;0.63;;;0.30;;
72205;SDS011;60111;48.286;7.812;2023-08-06T10:02:30;0.20;;;0.20;;
72205;SDS011;60111;48.286;7.812;2023-08-06T10:05:05;0.20;;;0.20;;
72205;SDS011;60111;48.286;7.812;2023-08-06T10:07:39;0.57;;;0.45;;
72205;SDS011;60111;48.286;7.812;2023-08-06T10:10:13;0.98;;;0.30;;
72205;SDS011;60111;48.286;7.812;2023-08-06T10:12:50;0.10;;;0.10;;
72205;SDS011;60111;48.286;7.812;2023-08-06T10:15:25;0.57;;;0.10;;
72205;SDS011;60111;48.286;7.812;2023-08-06T10:17:59;0.13;;;0.13;;
72205;SDS011;60111;48.286;7.812;2023-08-06T10:20:34;0.75;;;0.20;;
72205;SDS011;60111;48.286;7.812;2023-08-06T10:23:07;0.20;;;0.20;;
72205;SDS011;60111;48.286;7.812;2023-08-06T10:25:42;0.45;;;0.30;;
72205;SDS011;60111;48.286;7.812;2023-08-06T10:28:15;0.30;;;0.28;;
72205;SDS011;60111;48.286;7.812;2023-08-06T10:33:23;0.37;;;0.37;;
72205;SDS011;60111;48.286;7.812;2023-08-06T10:35:55;0.68;;;0.33;;
72205;SDS011;60111;48.286;7.812;2023-08-06T10:38:31;2.37;;;0.60;;
72205;SDS011;60111;48.286;7.812;2023-08-06T10:41:04;1.00;;;0.80;;
72205;SDS011;60111;48.286;7.812;2023-08-06T10:43:36;1.95;;;1.00;;
72205;SDS011;60111;48.286;7.812;2023-08-06T10:46:10;2.37;;;1.02;;
72205;SDS011;60111;48.286;7.812;2023-08-06T10:48:45;1.73;;;0.93;;
72205;SDS011;60111;48.286;7.812;2023-08-06T10:51:17;1.47;;;0.90;;
72205;SDS011;60111;48.286;7.812;2023-08-06T10:53:50;1.65;;;1.00;;
72205;SDS011;60111;48.286;7.812;2023-08-06T10:56:23;3.17;;;0.85;;
72205;SDS011;60111;48.286;7.812;2023-08-06T10:58:58;2.12;;;0.98;;
72205;SDS011;60111;48.286;7.812;2023-08-06T11:01:31;1.20;;;0.90;;
72205;SDS011;60111;48.286;7.812;2023-08-06T11:04:06;1.22;;;1.05;;
72205;SDS011;60111;48.286;7.812;2023-08-06T11:06:38;1.55;;;0.90;;
72205;SDS011;60111;48.286;7.812;2023-08-06T11:09:14;1.85;;;0.80;;
72205;SDS011;60111;48.286;7.812;2023-08-06T11:11:47;1.23;;;0.60;;
72205;SDS011;60111;48.286;7.812;2023-08-06T11:14:20;0.68;;;0.68;;
72205;SDS011;60111;48.286;7.812;2023-08-06T11:16:52;1.55;;;0.80;;
72205;SDS011;60111;48.286;7.812;2023-08-06T11:19:25;0.60;;;0.60;;
72205;SDS011;60111;48.286;7.812;2023-08-06T11:21:58;1.57;;;1.00;;
72205;SDS011;60111;48.286;7.812;2023-08-06T11:24:32;0.55;;;0.47;;
72205;SDS011;60111;48.286;7.812;2023-08-06T11:27:12;0.45;;;0.42;;
72205;SDS011;60111;48.286;7.812;2023-08-06T11:29:45;0.45;;;0.45;;
72205;SDS011;60111;48.286;7.812;2023-08-06T11:32:18;2.33;;;0.40;;
72205;SDS011;60111;48.286;7.812;2023-08-06T11:34:52;0.82;;;0.53;;
72205;SDS011;60111;48.286;7.812;2023-08-06T11:37:26;0.70;;;0.30;;
72205;SDS011;60111;48.286;7.812;2023-08-06T11:39:59;0.40;;;0.40;;
72205;SDS011;60111;48.286;7.812;2023-08-06T11:42:31;0.30;;;0.30;;
72205;SDS011;60111;48.286;7.812;2023-08-06T11:45:04;0.40;;;0.40;;
72205;SDS011;60111;48.286;7.812;2023-08-06T11:47:39;0.50;;;0.50;;
72205;SDS011;60111;48.286;7.812;2023-08-06T11:50:21;0.72;;;0.30;;
72205;SDS011;60111;48.286;7.812;2023-08-06T11:52:48;0.70;;;0.55;;
72205;SDS011;60111;48.286;7.812;2023-08-06T11:55:22;0.60;;;0.30;;
72205;SDS011;60111;48.286;7.812;2023-08-06T11:57:56;0.40;;;0.40;;
72205;SDS011;60111;48.286;7.812;2023-08-06T12:00:29;0.30;;;0.27;;
72205;SDS011;60111;48.286;7.812;2023-08-06T12:03:02;0.35;;;0.35;;
72205;SDS011;60111;48.286;7.812;2023-08-06T12:05:37;0.45;;;0.40;;
72205;SDS011;60111;48.286;7.812;2023-08-06T12:08:10;0.30;;;0.30;;
72205;SDS011;60111;48.286;7.812;2023-08-06T12:10:42;0.30;;;0.30;;
72205;SDS011;60111;48.286;7.812;2023-08-06T12:13:15;0.50;;;0.50;;
72205;SDS011;60111;48.286;7.812;2023-08-06T12:15:48;1.82;;;0.40;;
72205;SDS011;60111;48.286;7.812;2023-08-06T12:18:20;0.50;;;0.50;;
72205;SDS011;60111;48.286;7.812;2023-08-06T12:20:53;0.70;;;0.70;;
72205;SDS011;60111;48.286;7.812;2023-08-06T12:23:25;1.60;;;0.62;;
72205;SDS011;60111;48.286;7.812;2023-08-06T12:25:58;1.25;;;0.50;;
72205;SDS011;60111;48.286;7.812;2023-08-06T12:28:30;2.85;;;0.60;;
72205;SDS011;60111;48.286;7.812;2023-08-06T12:31:03;0.60;;;0.60;;
72205;SDS011;60111;48.286;7.812;2023-08-06T12:33:36;0.55;;;0.40;;
72205;SDS011;60111;48.286;7.812;2023-08-06T12:36:08;0.40;;;0.40;;
72205;SDS011;60111;48.286;7.812;2023-08-06T12:38:41;0.40;;;0.40;;
72205;SDS011;60111;48.286;7.812;2023-08-06T12:41:13;1.55;;;0.30;;
72205;SDS011;60111;48.286;7.812;2023-08-06T12:43:46;0.37;;;0.37;;
72205;SDS011;60111;48.286;7.812;2023-08-06T12:46:18;1.45;;;0.40;;
72205;SDS011;60111;48.286;7.812;2023-08-06T12:48:51;0.30;;;0.30;;
72205;SDS011;60111;48.286;7.812;2023-08-06T12:51:24;0.30;;;0.30;;
72205;SDS011;60111;48.286;7.812;2023-08-06T12:53:57;2.33;;;0.50;;
72205;SDS011;60111;48.286;7.812;2023-08-06T12:56:29;0.57;;;0.57;;
72205;SDS011;60111;48.286;7.812;2023-08-06T12:59:02;0.80;;;0.60;;
72205;SDS011;60111;48.286;7.812;2023-08-06T13:01:34;1.22;;;0.70;;
72205;SDS011;60111;48.286;7.812;2023-08-06T13:04:08;2.10;;;0.70;;
72205;SDS011;60111;48.286;7.812;2023-08-06T13:06:41;0.90;;;0.57;;
72205;SDS011;60111;48.286;7.812;2023-08-06T13:09:14;1.13;;;0.87;;
72205;SDS011;60111;48.286;7.812;2023-08-06T13:11:47;1.07;;;0.98;;
72205;SDS011;60111;48.286;7.812;2023-08-06T13:14:21;0.85;;;0.85;;
72205;SDS011;60111;48.286;7.812;2023-08-06T13:16:53;0.72;;;0.72;;
72205;SDS011;60111;48.286;7.812;2023-08-06T13:19:26;1.30;;;0.67;;
72205;SDS011;60111;48.286;7.812;2023-08-06T13:22:00;2.47;;;0.87;;
72205;SDS011;60111;48.286;7.812;2023-08-06T13:24:35;0.60;;;0.60;;
72205;SDS011;60111;48.286;7.812;2023-08-06T13:27:08;2.63;;;0.87;;
72205;SDS011;60111;48.286;7.812;2023-08-06T13:29:40;0.68;;;0.62;;
72205;SDS011;60111;48.286;7.812;2023-08-06T13:32:13;0.93;;;0.82;;
72205;SDS011;60111;48.286;7.812;2023-08-06T13:34:46;0.60;;;0.60;;
72205;SDS011;60111;48.286;7.812;2023-08-06T13:37:18;1.30;;;0.82;;
72205;SDS011;60111;48.286;7.812;2023-08-06T13:39:51;1.60;;;0.60;;
72205;SDS011;60111;48.286;7.812;2023-08-06T13:42:23;0.75;;;0.70;;
72205;SDS011;60111;48.286;7.812;2023-08-06T13:44:56;1.95;;;0.60;;
72205;SDS011;60111;48.286;7.812;2023-08-06T13:47:30;0.97;;;0.70;;
72205;SDS011;60111;48.286;7.812;2023-08-06T13:50:03;1.42;;;0.72;;
72205;SDS011;60111;48.286;7.812;2023-08-06T13:52:36;2.12;;;0.80;;
72205;SDS011;60111;48.286;7.812;2023-08-06T13:55:08;1.47;;;0.85;;
72205;SDS011;60111;48.286;7.812;2023-08-06T13:57:41;1.37;;;0.90;;
72205;SDS011;60111;48.286;7.812;2023-08-06T14:00:13;3.17;;;0.93;;
72205;SDS011;60111;48.286;7.812;2023-08-06T14:02:46;2.65;;;1.15;;
72205;SDS011;60111;48.286;7.812;2023-08-06T14:05:18;1.17;;;0.90;;
72205;SDS011;60111;48.286;7.812;2023-08-06T14:07:51;1.93;;;0.57;;
72205;SDS011;60111;48.286;7.812;2023-08-06T14:10:24;1.60;;;0.90;;
72205;SDS011;60111;48.286;7.812;2023-08-06T14:12:56;1.50;;;0.98;;
72205;SDS011;60111;48.286;7.812;2023-08-06T14:15:29;1.77;;;0.90;;
72205;SDS011;60111;48.286;7.812;2023-08-06T14:18:02;1.57;;;0.90;;
72205;SDS011;60111;48.286;7.812;2023-08-06T14:20:34;0.87;;;0.80;;
72205;SDS011;60111;48.286;7.812;2023-08-06T14:23:07;4.87;;;0.75;;
72205;SDS011;60111;48.286;7.812;2023-08-06T14:25:39;1.00;;;0.70;;
72205;SDS011;60111;48.286;7.812;2023-08-06T14:28:12;0.93;;;0.80;;
72205;SDS011;60111;48.286;7.812;2023-08-06T14:30:45;0.90;;;0.80;;
72205;SDS011;60111;48.286;7.812;2023-08-06T14:33:17;1.17;;;0.80;;
72205;SDS011;60111;48.286;7.812;2023-08-06T14:35:50;1.70;;;0.80;;
72205;SDS011;60111;48.286;7.812;2023-08-06T14:38:23;2.42;;;0.80;;
72205;SDS011;60111;48.286;7.812;2023-08-06T14:40:55;1.02;;;0.93;;
72205;SDS011;60111;48.286;7.812;2023-08-06T14:43:29;3.83;;;0.90;;
72205;SDS011;60111;48.286;7.812;2023-08-06T14:46:02;1.05;;;0.98;;
72205;SDS011;60111;48.286;7.812;2023-08-06T14:48:34;2.42;;;1.00;;
72205;SDS011;60111;48.286;7.812;2023-08-06T14:51:07;2.62;;;0.90;;
72205;SDS011;60111;48.286;7.812;2023-08-06T14:53:40;1.20;;;0.90;;
72205;SDS011;60111;48.286;7.812;2023-08-06T14:56:12;3.62;;;1.10;;
72205;SDS011;60111;48.286;7.812;2023-08-06T14:58:45;1.07;;;0.90;;
72205;SDS011;60111;48.286;7.812;2023-08-06T15:01:18;1.00;;;0.90;;
72205;SDS011;60111;48.286;7.812;2023-08-06T15:03:50;2.33;;;1.10;;
72205;SDS011;60111;48.286;7.812;2023-08-06T15:06:23;3.35;;;1.25;;
72205;SDS011;60111;48.286;7.812;2023-08-06T15:08:55;3.87;;;1.00;;
72205;SDS011;60111;48.286;7.812;2023-08-06T15:11:29;3.85;;;1.00;;
72205;SDS011;60111;48.286;7.812;2023-08-06T15:14:02;2.20;;;1.20;;
72205;SDS011;60111;48.286;7.812;2023-08-06T15:16:36;1.77;;;0.83;;
72205;SDS011;60111;48.286;7.812;2023-08-06T15:19:09;2.92;;;0.90;;
72205;SDS011;60111;48.286;7.812;2023-08-06T15:21:41;0.90;;;0.80;;
72205;SDS011;60111;48.286;7.812;2023-08-06T15:24:14;1.43;;;1.00;;
72205;SDS011;60111;48.286;7.812;2023-08-06T15:26:47;4.55;;;0.90;;
72205;SDS011;60111;48.286;7.812;2023-08-06T15:29:20;1.57;;;0.80;;